EZS1523 LSGG-GMTT
Flight info
| Callsign | EZS1523 |
|---|---|
| Flight time | 2h 30m |
| Altitude | 35000 |
| Route | BALSI DCT RETNO DCT TUPOX DCT MTG DCT DIVKO DCT NILDU/N0443F370 DCT NENDA DCT BCN DCT RODRA DCT PEXOT DCT EBROX DCT LOTOS DCT TORDU DCT DIKUT DCT SOPET DCT VLC/N0445F390 DCT SERRA DCT ASTRO DCT POBOS DCT XEBAR DCT YES DCT MAMIS DCT BAZAS DCT VIBAS DCT MGA DCT PIMOS N869 GALTO M143 LAMAD LAMAD2A |
| Aircraft | A320/M-SDE2E3FGHIJ1RWXYZ/LB1 |
Departure
| Time | 2026-05-04 10:36 |
|---|---|
| Airport | Geneva International Airport (LSGG) |
Arrival
| Time | 2026-05-04 13:06 |
|---|---|
| Airport | Tangier Ibn Battuta Airport (GMTT) |
| Time | Latitude | Longitude | Altitude | Speed | Heading |
|---|---|---|---|---|---|
| 2026-05-04 09:21 | 46.23327 | 6.10965 | 1393 ft | 0 kts | 135° |
| 2026-05-04 10:27 | 46.23333 | 6.10956 | 1402 ft | 4 kts | 140° |
| 2026-05-04 10:27 | 46.23355 | 6.10936 | 1407 ft | 4 kts | 141° |
| 2026-05-04 10:27 | 46.23371 | 6.10913 | 1404 ft | 4 kts | 117° |
| 2026-05-04 10:27 | 46.23375 | 6.10880 | 1393 ft | 4 kts | 63° |
| 2026-05-04 10:28 | 46.23359 | 6.10850 | 1393 ft | 4 kts | 45° |
| 2026-05-04 10:28 | 46.23343 | 6.10827 | 1393 ft | 1 kts | 45° |
| 2026-05-04 10:28 | 46.23343 | 6.10826 | 1393 ft | 0 kts | 45° |
| 2026-05-04 10:30 | 46.23348 | 6.10835 | 1393 ft | 4 kts | 45° |
| 2026-05-04 10:30 | 46.23383 | 6.10885 | 1393 ft | 8 kts | 45° |
| 2026-05-04 10:30 | 46.23425 | 6.10947 | 1395 ft | 11 kts | 45° |
| 2026-05-04 10:30 | 46.23475 | 6.11021 | 1393 ft | 10 kts | 45° |
| 2026-05-04 10:31 | 46.23524 | 6.11092 | 1400 ft | 12 kts | 45° |
| 2026-05-04 10:31 | 46.23580 | 6.11165 | 1392 ft | 10 kts | 22° |
| 2026-05-04 10:32 | 46.24096 | 6.11654 | 1368 ft | 28 kts | 45° |
| 2026-05-04 10:33 | 46.24239 | 6.11863 | 1362 ft | 28 kts | 45° |
| 2026-05-04 10:33 | 46.24376 | 6.12065 | 1367 ft | 27 kts | 45° |
| 2026-05-04 10:33 | 46.24504 | 6.12253 | 1372 ft | 26 kts | 45° |
| 2026-05-04 10:33 | 46.24635 | 6.12445 | 1367 ft | 29 kts | 45° |
| 2026-05-04 10:34 | 46.24761 | 6.12629 | 1362 ft | 16 kts | 42° |
| 2026-05-04 10:34 | 46.24851 | 6.12690 | 1364 ft | 12 kts | 17° |
| 2026-05-04 10:34 | 46.24927 | 6.12725 | 1365 ft | 12 kts | 17° |
| 2026-05-04 10:34 | 46.25007 | 6.12721 | 1370 ft | 10 kts | 324° |
| 2026-05-04 10:35 | 46.25005 | 6.12656 | 1371 ft | 8 kts | 226° |
| 2026-05-04 10:35 | 46.24945 | 6.12567 | 1371 ft | 29 kts | 225° |
| 2026-05-04 10:35 | 46.24629 | 6.12103 | 1372 ft | 97 kts | 225° |
| 2026-05-04 10:35 | 46.24018 | 6.11207 | 1377 ft | 150 kts | 225° |
| 2026-05-04 10:36 | 46.23225 | 6.10049 | 1771 ft | 162 kts | 227° |
| 2026-05-04 10:36 | 46.22440 | 6.08880 | 2495 ft | 163 kts | 226° |
| 2026-05-04 10:36 | 46.21658 | 6.07722 | 3146 ft | 163 kts | 225° |
| 2026-05-04 10:36 | 46.20861 | 6.06548 | 3727 ft | 165 kts | 225° |
| 2026-05-04 10:37 | 46.20053 | 6.05365 | 4320 ft | 166 kts | 225° |
| 2026-05-04 10:37 | 46.19229 | 6.04165 | 4797 ft | 175 kts | 225° |
| 2026-05-04 10:37 | 46.18315 | 6.02840 | 5023 ft | 198 kts | 224° |
| 2026-05-04 10:37 | 46.17286 | 6.01342 | 5243 ft | 223 kts | 225° |
| 2026-05-04 10:39 | 46.08573 | 5.94630 | 9514 ft | 266 kts | 168° |
| 2026-05-04 10:39 | 46.06764 | 5.95274 | 10300 ft | 270 kts | 168° |
| 2026-05-04 10:39 | 46.04873 | 5.95931 | 10589 ft | 291 kts | 167° |
| 2026-05-04 10:40 | 46.02845 | 5.96630 | 11007 ft | 305 kts | 167° |
| 2026-05-04 10:40 | 46.00760 | 5.97345 | 11654 ft | 311 kts | 168° |
| 2026-05-04 10:40 | 45.98631 | 5.98070 | 12341 ft | 316 kts | 168° |
| 2026-05-04 10:40 | 45.96463 | 5.98658 | 13012 ft | 319 kts | 177° |
| 2026-05-04 10:41 | 45.94230 | 5.98648 | 13688 ft | 323 kts | 184° |
| 2026-05-04 10:41 | 45.91972 | 5.98497 | 14323 ft | 326 kts | 184° |
| 2026-05-04 10:41 | 45.89688 | 5.98349 | 14953 ft | 330 kts | 184° |
| 2026-05-04 10:41 | 45.87384 | 5.98205 | 15583 ft | 333 kts | 184° |
| 2026-05-04 10:42 | 45.85058 | 5.98066 | 16213 ft | 337 kts | 184° |
| 2026-05-04 10:42 | 45.82705 | 5.97924 | 16853 ft | 339 kts | 184° |
| 2026-05-04 10:42 | 45.80336 | 5.97780 | 17464 ft | 342 kts | 185° |
| 2026-05-04 10:42 | 45.77947 | 5.97644 | 18101 ft | 345 kts | 185° |
| 2026-05-04 10:43 | 45.75535 | 5.97528 | 18657 ft | 348 kts | 184° |
| 2026-05-04 10:44 | 45.58139 | 5.96685 | 22301 ft | 367 kts | 184° |
| 2026-05-04 10:45 | 45.55610 | 5.96533 | 22848 ft | 370 kts | 184° |
| 2026-05-04 10:45 | 45.53033 | 5.96382 | 23359 ft | 372 kts | 184° |
| 2026-05-04 10:45 | 45.50434 | 5.96228 | 23812 ft | 375 kts | 184° |
| 2026-05-04 10:45 | 45.47826 | 5.96011 | 24214 ft | 376 kts | 188° |
| 2026-05-04 10:46 | 45.45250 | 5.95308 | 24610 ft | 378 kts | 193° |
| 2026-05-04 10:46 | 45.42677 | 5.94497 | 25010 ft | 379 kts | 193° |
| 2026-05-04 10:46 | 45.40095 | 5.93682 | 25399 ft | 382 kts | 193° |
| 2026-05-04 10:46 | 45.37496 | 5.92866 | 25774 ft | 384 kts | 193° |
| 2026-05-04 10:47 | 45.34879 | 5.92049 | 26164 ft | 386 kts | 193° |
| 2026-05-04 10:47 | 45.32250 | 5.91232 | 26574 ft | 387 kts | 193° |
| 2026-05-04 10:47 | 45.29609 | 5.90412 | 26927 ft | 390 kts | 193° |
| 2026-05-04 10:47 | 45.26956 | 5.89588 | 27290 ft | 391 kts | 193° |
| 2026-05-04 10:49 | 45.08004 | 5.83713 | 29737 ft | 405 kts | 193° |
| 2026-05-04 10:49 | 45.05249 | 5.82862 | 30090 ft | 407 kts | 193° |
| 2026-05-04 10:50 | 45.02481 | 5.82007 | 30373 ft | 408 kts | 193° |
| 2026-05-04 10:51 | 44.82933 | 5.76011 | 32384 ft | 410 kts | 195° |
| 2026-05-04 10:52 | 44.80143 | 5.75154 | 32689 ft | 410 kts | 195° |
| 2026-05-04 10:52 | 44.77362 | 5.74300 | 33015 ft | 409 kts | 195° |
| 2026-05-04 10:52 | 44.74584 | 5.73452 | 33336 ft | 408 kts | 195° |
| 2026-05-04 10:54 | 44.55335 | 5.67590 | 35388 ft | 402 kts | 196° |
| 2026-05-04 10:54 | 44.52605 | 5.66764 | 35688 ft | 401 kts | 196° |
| 2026-05-04 10:56 | 44.33823 | 5.60062 | 37044 ft | 394 kts | 205° |
| 2026-05-04 10:56 | 44.31268 | 5.58654 | 37084 ft | 396 kts | 205° |
| 2026-05-04 10:57 | 44.26130 | 5.55837 | 37081 ft | 397 kts | 205° |
| 2026-05-04 10:57 | 44.20992 | 5.53032 | 37073 ft | 396 kts | 205° |
| 2026-05-04 10:58 | 44.15858 | 5.50235 | 37082 ft | 396 kts | 205° |
| 2026-05-04 10:58 | 44.10729 | 5.47439 | 37062 ft | 396 kts | 205° |
| 2026-05-04 10:59 | 44.05595 | 5.44646 | 37039 ft | 396 kts | 205° |
| 2026-05-04 10:59 | 44.00463 | 5.41863 | 37044 ft | 396 kts | 205° |
| 2026-05-04 11:00 | 43.95326 | 5.39086 | 37050 ft | 396 kts | 205° |
| 2026-05-04 11:02 | 43.74781 | 5.27996 | 37051 ft | 395 kts | 205° |
| 2026-05-04 11:05 | 43.36872 | 5.07035 | 37040 ft | 384 kts | 217° |
| 2026-05-04 11:06 | 43.32475 | 5.02870 | 37033 ft | 384 kts | 217° |
| 2026-05-04 11:06 | 43.28820 | 4.99424 | 37019 ft | 383 kts | 218° |
| 2026-05-04 11:10 | 42.98867 | 4.69503 | 37009 ft | 378 kts | 224° |
| 2026-05-04 11:12 | 42.83134 | 4.50572 | 37008 ft | 377 kts | 223° |
| 2026-05-04 11:12 | 42.79199 | 4.45840 | 37004 ft | 377 kts | 223° |
| 2026-05-04 11:13 | 42.75255 | 4.41115 | 36998 ft | 378 kts | 223° |
| 2026-05-04 11:13 | 42.71300 | 4.36402 | 36994 ft | 378 kts | 223° |
| 2026-05-04 11:14 | 42.67352 | 4.31688 | 36994 ft | 378 kts | 223° |
| 2026-05-04 11:16 | 42.51509 | 4.12854 | 36977 ft | 379 kts | 223° |
| 2026-05-04 11:16 | 42.47537 | 4.08146 | 36975 ft | 379 kts | 223° |
| 2026-05-04 11:17 | 42.43553 | 4.03459 | 36978 ft | 379 kts | 223° |
| 2026-05-04 11:19 | 42.27673 | 3.84792 | 36985 ft | 377 kts | 223° |
| 2026-05-04 11:19 | 42.24262 | 3.79503 | 37019 ft | 374 kts | 235° |
| 2026-05-04 11:20 | 42.21260 | 3.73769 | 37003 ft | 374 kts | 234° |
| 2026-05-04 11:20 | 42.18245 | 3.68054 | 36986 ft | 374 kts | 234° |
| 2026-05-04 11:22 | 42.06201 | 3.45322 | 36971 ft | 372 kts | 234° |
| 2026-05-04 11:23 | 42.03187 | 3.39663 | 36974 ft | 372 kts | 234° |
| 2026-05-04 11:25 | 41.92614 | 3.19892 | 36936 ft | 372 kts | 234° |
| 2026-05-04 11:25 | 41.89595 | 3.14268 | 36960 ft | 371 kts | 234° |
| 2026-05-04 11:27 | 41.76033 | 2.89118 | 36962 ft | 370 kts | 234° |
| 2026-05-04 11:28 | 41.73007 | 2.83545 | 36954 ft | 370 kts | 234° |
| 2026-05-04 11:28 | 41.69983 | 2.77981 | 36963 ft | 369 kts | 234° |
| 2026-05-04 11:29 | 41.66944 | 2.72453 | 36962 ft | 369 kts | 233° |
| 2026-05-04 11:29 | 41.63796 | 2.67040 | 36988 ft | 368 kts | 232° |
| 2026-05-04 11:33 | 41.41673 | 2.29335 | 36977 ft | 367 kts | 232° |
| 2026-05-04 11:33 | 41.38518 | 2.23986 | 36996 ft | 367 kts | 232° |
| 2026-05-04 11:34 | 41.35360 | 2.18633 | 36987 ft | 368 kts | 232° |
| 2026-05-04 11:34 | 41.32199 | 2.13286 | 36950 ft | 368 kts | 232° |
| 2026-05-04 11:35 | 41.28970 | 2.08011 | 36966 ft | 367 kts | 229° |
| 2026-05-04 11:35 | 41.25573 | 2.02999 | 36974 ft | 367 kts | 228° |
| 2026-05-04 11:36 | 41.22112 | 1.98005 | 36978 ft | 367 kts | 228° |
| 2026-05-04 11:36 | 41.18685 | 1.92984 | 36977 ft | 367 kts | 229° |
| 2026-05-04 11:37 | 41.15275 | 1.87941 | 37002 ft | 367 kts | 229° |
| 2026-05-04 11:37 | 41.11862 | 1.82905 | 36991 ft | 367 kts | 229° |
| 2026-05-04 11:38 | 41.08441 | 1.77876 | 36980 ft | 367 kts | 229° |
| 2026-05-04 11:38 | 41.05022 | 1.72861 | 36985 ft | 367 kts | 229° |
| 2026-05-04 11:39 | 41.01601 | 1.67854 | 36990 ft | 366 kts | 229° |
| 2026-05-04 11:41 | 40.89652 | 1.50382 | 36977 ft | 366 kts | 228° |
| 2026-05-04 11:41 | 40.86229 | 1.45405 | 36980 ft | 366 kts | 228° |
| 2026-05-04 11:42 | 40.82810 | 1.40433 | 36984 ft | 366 kts | 228° |
| 2026-05-04 11:42 | 40.79376 | 1.35472 | 36986 ft | 366 kts | 228° |
| 2026-05-04 11:43 | 40.75946 | 1.30517 | 36984 ft | 366 kts | 228° |
| 2026-05-04 11:43 | 40.72517 | 1.25556 | 36987 ft | 366 kts | 228° |
| 2026-05-04 11:44 | 40.69087 | 1.20605 | 36981 ft | 366 kts | 228° |
| 2026-05-04 11:44 | 40.65657 | 1.15657 | 36983 ft | 366 kts | 228° |
| 2026-05-04 11:45 | 40.62222 | 1.10716 | 37001 ft | 366 kts | 228° |
| 2026-05-04 11:45 | 40.58780 | 1.05765 | 36992 ft | 367 kts | 228° |
| 2026-05-04 11:46 | 40.55328 | 1.00815 | 36983 ft | 367 kts | 227° |
| 2026-05-04 11:46 | 40.51870 | 0.95867 | 36981 ft | 368 kts | 228° |
| 2026-05-04 11:47 | 40.48409 | 0.90920 | 36976 ft | 368 kts | 228° |
| 2026-05-04 11:47 | 40.44946 | 0.85981 | 36960 ft | 368 kts | 228° |
| 2026-05-04 11:48 | 40.41503 | 0.81083 | 36970 ft | 367 kts | 228° |
| 2026-05-04 11:48 | 40.38040 | 0.76164 | 37011 ft | 367 kts | 227° |
| 2026-05-04 11:49 | 40.34571 | 0.71245 | 36991 ft | 368 kts | 227° |
| 2026-05-04 11:49 | 40.31097 | 0.66323 | 36981 ft | 368 kts | 227° |
| 2026-05-04 11:50 | 40.27617 | 0.61400 | 36977 ft | 368 kts | 227° |
| 2026-05-04 11:50 | 40.24133 | 0.56475 | 36939 ft | 368 kts | 227° |
| 2026-05-04 11:51 | 40.20647 | 0.51560 | 36961 ft | 368 kts | 227° |
| 2026-05-04 11:51 | 40.17158 | 0.46652 | 36972 ft | 368 kts | 227° |
| 2026-05-04 11:52 | 40.13666 | 0.41754 | 36979 ft | 368 kts | 227° |
| 2026-05-04 11:52 | 40.10176 | 0.36871 | 37004 ft | 368 kts | 227° |
| 2026-05-04 11:53 | 40.06683 | 0.31980 | 36972 ft | 369 kts | 227° |
| 2026-05-04 11:53 | 40.03769 | 0.27910 | 36964 ft | 369 kts | 227° |
| 2026-05-04 11:55 | 39.89740 | 0.08344 | 36963 ft | 369 kts | 227° |
| 2026-05-04 11:56 | 39.86226 | 0.03469 | 36962 ft | 369 kts | 227° |
| 2026-05-04 11:56 | 39.82712 | -0.01398 | 36980 ft | 369 kts | 227° |
| 2026-05-04 11:57 | 39.79191 | -0.06270 | 36935 ft | 370 kts | 227° |
| 2026-05-04 11:57 | 39.75658 | -0.11139 | 36943 ft | 371 kts | 227° |
| 2026-05-04 11:58 | 39.72115 | -0.16014 | 36957 ft | 371 kts | 227° |
| 2026-05-04 11:58 | 39.68579 | -0.20886 | 36963 ft | 371 kts | 227° |
| 2026-05-04 11:59 | 39.65047 | -0.25758 | 36968 ft | 370 kts | 227° |
| 2026-05-04 11:59 | 39.61505 | -0.30621 | 36973 ft | 370 kts | 227° |
| 2026-05-04 12:00 | 39.57961 | -0.35469 | 36972 ft | 371 kts | 227° |
| 2026-05-04 12:00 | 39.54415 | -0.40321 | 36965 ft | 370 kts | 227° |
| 2026-05-04 12:01 | 39.50869 | -0.45154 | 36980 ft | 370 kts | 227° |
| 2026-05-04 12:02 | 39.39766 | -0.63347 | 36982 ft | 369 kts | 233° |
| 2026-05-04 12:03 | 39.36658 | -0.68631 | 36964 ft | 369 kts | 233° |
| 2026-05-04 12:03 | 39.33554 | -0.73902 | 36931 ft | 368 kts | 233° |
| 2026-05-04 12:04 | 39.30456 | -0.79160 | 36974 ft | 368 kts | 233° |
| 2026-05-04 12:04 | 39.27345 | -0.84432 | 36957 ft | 369 kts | 233° |
| 2026-05-04 12:05 | 39.24226 | -0.89707 | 36951 ft | 370 kts | 233° |
| 2026-05-04 12:05 | 39.21095 | -0.94988 | 36962 ft | 371 kts | 233° |
| 2026-05-04 12:06 | 39.17961 | -1.00270 | 36967 ft | 371 kts | 233° |
| 2026-05-04 12:06 | 39.14825 | -1.05555 | 36968 ft | 371 kts | 233° |
| 2026-05-04 12:07 | 39.11681 | -1.10828 | 36943 ft | 372 kts | 233° |
| 2026-05-04 12:07 | 39.08536 | -1.16104 | 36984 ft | 371 kts | 233° |
| 2026-05-04 12:08 | 39.05385 | -1.21382 | 36985 ft | 372 kts | 233° |
| 2026-05-04 12:08 | 39.02229 | -1.26651 | 36992 ft | 372 kts | 233° |
| 2026-05-04 12:09 | 38.99071 | -1.31925 | 36988 ft | 372 kts | 233° |
| 2026-05-04 12:09 | 38.95911 | -1.37194 | 36988 ft | 372 kts | 233° |
| 2026-05-04 12:10 | 38.92746 | -1.42462 | 36998 ft | 372 kts | 233° |
| 2026-05-04 12:10 | 38.89575 | -1.47721 | 37004 ft | 373 kts | 233° |
| 2026-05-04 12:11 | 38.86403 | -1.52979 | 37022 ft | 372 kts | 233° |
| 2026-05-04 12:11 | 38.83235 | -1.58231 | 37013 ft | 372 kts | 233° |
| 2026-05-04 12:12 | 38.80065 | -1.63476 | 37010 ft | 372 kts | 233° |
| 2026-05-04 12:12 | 38.76893 | -1.68707 | 37008 ft | 372 kts | 233° |
| 2026-05-04 12:14 | 38.64171 | -1.89586 | 36996 ft | 372 kts | 233° |
| 2026-05-04 12:15 | 38.60984 | -1.94800 | 36998 ft | 372 kts | 233° |
| 2026-05-04 12:15 | 38.57795 | -2.00016 | 37012 ft | 372 kts | 233° |
| 2026-05-04 12:16 | 38.54601 | -2.05226 | 37016 ft | 372 kts | 233° |
| 2026-05-04 12:16 | 38.51405 | -2.10426 | 37014 ft | 372 kts | 233° |
| 2026-05-04 12:17 | 38.48202 | -2.15621 | 37017 ft | 372 kts | 233° |
| 2026-05-04 12:17 | 38.45005 | -2.20815 | 37017 ft | 372 kts | 233° |
| 2026-05-04 12:18 | 38.41801 | -2.26007 | 37020 ft | 372 kts | 233° |
| 2026-05-04 12:18 | 38.38593 | -2.31199 | 37043 ft | 373 kts | 234° |
| 2026-05-04 12:19 | 38.35311 | -2.36320 | 37026 ft | 374 kts | 229° |
| 2026-05-04 12:19 | 38.31746 | -2.41111 | 37028 ft | 375 kts | 229° |
| 2026-05-04 12:20 | 38.28153 | -2.45944 | 37032 ft | 376 kts | 229° |
| 2026-05-04 12:20 | 38.24559 | -2.50763 | 37034 ft | 375 kts | 229° |
| 2026-05-04 12:21 | 38.20963 | -2.55573 | 37031 ft | 375 kts | 229° |
| 2026-05-04 12:21 | 38.17366 | -2.60379 | 37032 ft | 375 kts | 229° |
| 2026-05-04 12:22 | 38.13766 | -2.65179 | 37003 ft | 374 kts | 229° |
| 2026-05-04 12:22 | 38.10171 | -2.69973 | 37043 ft | 375 kts | 229° |
| 2026-05-04 12:23 | 38.06574 | -2.74760 | 37038 ft | 375 kts | 230° |
| 2026-05-04 12:23 | 38.02973 | -2.79551 | 37041 ft | 375 kts | 229° |
| 2026-05-04 12:24 | 37.99367 | -2.84332 | 37042 ft | 375 kts | 229° |
| 2026-05-04 12:24 | 37.95762 | -2.89102 | 37040 ft | 374 kts | 230° |
| 2026-05-04 12:25 | 37.92158 | -2.93860 | 37031 ft | 375 kts | 229° |
| 2026-05-04 12:25 | 37.88555 | -2.98621 | 37010 ft | 374 kts | 229° |
| 2026-05-04 12:26 | 37.84964 | -3.03373 | 37019 ft | 373 kts | 229° |
| 2026-05-04 12:26 | 37.81372 | -3.08110 | 37045 ft | 373 kts | 230° |
| 2026-05-04 12:27 | 37.77769 | -3.12834 | 37031 ft | 373 kts | 229° |
| 2026-05-04 12:27 | 37.74166 | -3.17552 | 37026 ft | 373 kts | 229° |
| 2026-05-04 12:28 | 37.70570 | -3.22274 | 37020 ft | 373 kts | 230° |
| 2026-05-04 12:28 | 37.66999 | -3.26955 | 36977 ft | 373 kts | 229° |
| 2026-05-04 12:29 | 37.63377 | -3.31692 | 37004 ft | 372 kts | 230° |
| 2026-05-04 12:29 | 37.59810 | -3.36349 | 37015 ft | 371 kts | 230° |
| 2026-05-04 12:30 | 37.56224 | -3.41023 | 37021 ft | 371 kts | 230° |
| 2026-05-04 12:30 | 37.52638 | -3.45686 | 37032 ft | 371 kts | 230° |
| 2026-05-04 12:31 | 37.49045 | -3.50354 | 37024 ft | 371 kts | 230° |
| 2026-05-04 12:31 | 37.45452 | -3.55012 | 37028 ft | 371 kts | 230° |
| 2026-05-04 12:32 | 37.40057 | -3.61997 | 36999 ft | 371 kts | 230° |
| 2026-05-04 12:33 | 37.36463 | -3.66638 | 37017 ft | 370 kts | 230° |
| 2026-05-04 12:33 | 37.32878 | -3.71274 | 37024 ft | 369 kts | 230° |
| 2026-05-04 12:34 | 37.29300 | -3.75899 | 37030 ft | 369 kts | 230° |
| 2026-05-04 12:34 | 37.25713 | -3.80501 | 37067 ft | 368 kts | 230° |
| 2026-05-04 12:35 | 37.22135 | -3.85099 | 37084 ft | 368 kts | 230° |
| 2026-05-04 12:35 | 37.18558 | -3.89691 | 37077 ft | 368 kts | 230° |
| 2026-05-04 12:36 | 37.14982 | -3.94280 | 37037 ft | 368 kts | 230° |
| 2026-05-04 12:36 | 37.11405 | -3.98858 | 37040 ft | 368 kts | 230° |
| 2026-05-04 12:37 | 37.07827 | -4.03430 | 37037 ft | 367 kts | 230° |
| 2026-05-04 12:37 | 37.04249 | -4.07989 | 37035 ft | 367 kts | 230° |
| 2026-05-04 12:38 | 37.01273 | -4.11779 | 37031 ft | 367 kts | 230° |
| 2026-05-04 12:38 | 36.97696 | -4.16333 | 37027 ft | 367 kts | 230° |
| 2026-05-04 12:39 | 36.94114 | -4.20880 | 37025 ft | 367 kts | 230° |
| 2026-05-04 12:39 | 36.92320 | -4.23154 | 36826 ft | 367 kts | 230° |
| 2026-05-04 12:39 | 36.90530 | -4.25426 | 36509 ft | 367 kts | 230° |
| 2026-05-04 12:39 | 36.88738 | -4.27700 | 36250 ft | 367 kts | 230° |
| 2026-05-04 12:40 | 36.86942 | -4.29978 | 36002 ft | 368 kts | 230° |
| 2026-05-04 12:40 | 36.85144 | -4.32256 | 35751 ft | 368 kts | 230° |
| 2026-05-04 12:40 | 36.83355 | -4.34516 | 35398 ft | 364 kts | 230° |
| 2026-05-04 12:40 | 36.81541 | -4.36700 | 34887 ft | 363 kts | 225° |
| 2026-05-04 12:41 | 36.79465 | -4.38520 | 34362 ft | 366 kts | 219° |
| 2026-05-04 12:41 | 36.77321 | -4.40221 | 33801 ft | 364 kts | 219° |
| 2026-05-04 12:41 | 36.75191 | -4.41912 | 33256 ft | 361 kts | 219° |
| 2026-05-04 12:41 | 36.73079 | -4.43589 | 32740 ft | 358 kts | 219° |
| 2026-05-04 12:42 | 36.70992 | -4.45245 | 32232 ft | 354 kts | 219° |
| 2026-05-04 12:42 | 36.68923 | -4.46890 | 31729 ft | 351 kts | 219° |
| 2026-05-04 12:42 | 36.66872 | -4.48522 | 31239 ft | 348 kts | 219° |
| 2026-05-04 12:42 | 36.64841 | -4.50136 | 30748 ft | 345 kts | 219° |
| 2026-05-04 12:43 | 36.62831 | -4.51732 | 30287 ft | 341 kts | 220° |
| 2026-05-04 12:43 | 36.60835 | -4.53310 | 29781 ft | 339 kts | 220° |
| 2026-05-04 12:43 | 36.58856 | -4.54874 | 29323 ft | 334 kts | 219° |
| 2026-05-04 12:43 | 36.56909 | -4.56415 | 28895 ft | 330 kts | 219° |
| 2026-05-04 12:44 | 36.54986 | -4.57937 | 28480 ft | 326 kts | 219° |
| 2026-05-04 12:44 | 36.53082 | -4.59442 | 28037 ft | 322 kts | 219° |
| 2026-05-04 12:44 | 36.51204 | -4.60925 | 27633 ft | 319 kts | 219° |
| 2026-05-04 12:44 | 36.49344 | -4.62392 | 27218 ft | 315 kts | 219° |
| 2026-05-04 12:45 | 36.47507 | -4.63845 | 26810 ft | 311 kts | 219° |
| 2026-05-04 12:45 | 36.45689 | -4.65283 | 26398 ft | 309 kts | 219° |
| 2026-05-04 12:45 | 36.43885 | -4.66704 | 25990 ft | 306 kts | 219° |
| 2026-05-04 12:45 | 36.42095 | -4.68112 | 25563 ft | 303 kts | 219° |
| 2026-05-04 12:46 | 36.40344 | -4.69492 | 25120 ft | 301 kts | 218° |
| 2026-05-04 12:46 | 36.38582 | -4.70881 | 24724 ft | 299 kts | 218° |
| 2026-05-04 12:46 | 36.36807 | -4.72280 | 24288 ft | 298 kts | 218° |
| 2026-05-04 12:46 | 36.35058 | -4.73657 | 23870 ft | 297 kts | 218° |
| 2026-05-04 12:47 | 36.33312 | -4.75029 | 23403 ft | 297 kts | 218° |
| 2026-05-04 12:47 | 36.31590 | -4.76377 | 22945 ft | 296 kts | 218° |
| 2026-05-04 12:47 | 36.29857 | -4.77730 | 22528 ft | 293 kts | 218° |
| 2026-05-04 12:47 | 36.28136 | -4.79076 | 22093 ft | 292 kts | 218° |
| 2026-05-04 12:48 | 36.26426 | -4.80418 | 21681 ft | 290 kts | 218° |
| 2026-05-04 12:48 | 36.24725 | -4.81754 | 21274 ft | 289 kts | 217° |
| 2026-05-04 12:48 | 36.23029 | -4.83085 | 20873 ft | 288 kts | 217° |
| 2026-05-04 12:48 | 36.21337 | -4.84412 | 20471 ft | 287 kts | 217° |
| 2026-05-04 12:49 | 36.19650 | -4.85731 | 20072 ft | 287 kts | 217° |
| 2026-05-04 12:49 | 36.17966 | -4.87048 | 19659 ft | 286 kts | 217° |
| 2026-05-04 12:49 | 36.16287 | -4.88362 | 19298 ft | 285 kts | 217° |
| 2026-05-04 12:49 | 36.14610 | -4.89672 | 18900 ft | 285 kts | 217° |
| 2026-05-04 12:50 | 36.12938 | -4.90989 | 18510 ft | 285 kts | 217° |
| 2026-05-04 12:50 | 36.11266 | -4.92313 | 18106 ft | 285 kts | 217° |
| 2026-05-04 12:50 | 36.09603 | -4.93633 | 17717 ft | 283 kts | 217° |
| 2026-05-04 12:50 | 36.07949 | -4.94944 | 17336 ft | 282 kts | 217° |
| 2026-05-04 12:51 | 36.06299 | -4.96250 | 16957 ft | 281 kts | 217° |
| 2026-05-04 12:51 | 36.04650 | -4.97556 | 16589 ft | 281 kts | 217° |
| 2026-05-04 12:51 | 36.03008 | -4.98858 | 16223 ft | 280 kts | 217° |
| 2026-05-04 12:51 | 36.01366 | -5.00156 | 15848 ft | 280 kts | 217° |
| 2026-05-04 12:52 | 35.99721 | -5.01455 | 15487 ft | 280 kts | 217° |
| 2026-05-04 12:52 | 35.98078 | -5.02750 | 15130 ft | 280 kts | 216° |
| 2026-05-04 12:52 | 35.96432 | -5.04044 | 14772 ft | 281 kts | 216° |
| 2026-05-04 12:52 | 35.94786 | -5.05344 | 14409 ft | 281 kts | 216° |
| 2026-05-04 12:53 | 35.93136 | -5.06641 | 14045 ft | 282 kts | 216° |
| 2026-05-04 12:53 | 35.91482 | -5.07945 | 13654 ft | 283 kts | 216° |
| 2026-05-04 12:53 | 35.89818 | -5.09261 | 13280 ft | 285 kts | 216° |
| 2026-05-04 12:53 | 35.88155 | -5.10575 | 12925 ft | 284 kts | 216° |
| 2026-05-04 12:54 | 35.86492 | -5.11879 | 12571 ft | 283 kts | 216° |
| 2026-05-04 12:54 | 35.84898 | -5.13272 | 12188 ft | 278 kts | 226° |
| 2026-05-04 12:54 | 35.83692 | -5.15093 | 11840 ft | 273 kts | 242° |
| 2026-05-04 12:54 | 35.82971 | -5.17236 | 11496 ft | 270 kts | 256° |
| 2026-05-04 12:55 | 35.82642 | -5.19514 | 11157 ft | 269 kts | 260° |
| 2026-05-04 12:55 | 35.82335 | -5.21786 | 10817 ft | 268 kts | 260° |
| 2026-05-04 12:55 | 35.82026 | -5.24042 | 10481 ft | 266 kts | 260° |
| 2026-05-04 12:55 | 35.81716 | -5.26285 | 10148 ft | 265 kts | 260° |
| 2026-05-04 12:56 | 35.81406 | -5.28514 | 9805 ft | 263 kts | 260° |
| 2026-05-04 12:56 | 35.81118 | -5.30587 | 9462 ft | 262 kts | 260° |
| 2026-05-04 12:56 | 35.80808 | -5.32821 | 9122 ft | 261 kts | 260° |
| 2026-05-04 12:56 | 35.80501 | -5.35017 | 8789 ft | 260 kts | 260° |
| 2026-05-04 12:57 | 35.80197 | -5.37204 | 8453 ft | 258 kts | 260° |
| 2026-05-04 12:57 | 35.79898 | -5.39350 | 8138 ft | 258 kts | 260° |
| 2026-05-04 12:57 | 35.79594 | -5.41528 | 7812 ft | 258 kts | 261° |
| 2026-05-04 12:57 | 35.79294 | -5.43687 | 7503 ft | 254 kts | 260° |
| 2026-05-04 12:58 | 35.78998 | -5.45820 | 7197 ft | 250 kts | 260° |
| 2026-05-04 12:58 | 35.78711 | -5.47893 | 6933 ft | 243 kts | 260° |
| 2026-05-04 12:58 | 35.78417 | -5.49920 | 6670 ft | 238 kts | 256° |
| 2026-05-04 12:58 | 35.77766 | -5.51771 | 6402 ft | 235 kts | 242° |
| 2026-05-04 12:59 | 35.76951 | -5.53499 | 6078 ft | 231 kts | 242° |
| 2026-05-04 12:59 | 35.76151 | -5.55196 | 5759 ft | 227 kts | 241° |
| 2026-05-04 12:59 | 35.75367 | -5.56852 | 5517 ft | 220 kts | 242° |
| 2026-05-04 12:59 | 35.74612 | -5.58444 | 5276 ft | 212 kts | 241° |
| 2026-05-04 13:00 | 35.73872 | -5.59996 | 5026 ft | 209 kts | 240° |
| 2026-05-04 13:00 | 35.73136 | -5.61531 | 4775 ft | 206 kts | 241° |
| 2026-05-04 13:00 | 35.72413 | -5.63045 | 4539 ft | 204 kts | 241° |
| 2026-05-04 13:00 | 35.71691 | -5.64553 | 4288 ft | 205 kts | 241° |
| 2026-05-04 13:01 | 35.71036 | -5.66088 | 3999 ft | 200 kts | 253° |
| 2026-05-04 13:01 | 35.70860 | -5.67712 | 3769 ft | 188 kts | 273° |
| 2026-05-04 13:01 | 35.71009 | -5.69284 | 3553 ft | 181 kts | 275° |
| 2026-05-04 13:01 | 35.71153 | -5.70811 | 3287 ft | 178 kts | 275° |
| 2026-05-04 13:02 | 35.71293 | -5.72290 | 3049 ft | 172 kts | 275° |
| 2026-05-04 13:02 | 35.71431 | -5.73745 | 2821 ft | 170 kts | 275° |
| 2026-05-04 13:02 | 35.71567 | -5.75195 | 2602 ft | 171 kts | 275° |
| 2026-05-04 13:02 | 35.71707 | -5.76657 | 2379 ft | 173 kts | 276° |
| 2026-05-04 13:03 | 35.71845 | -5.78105 | 2140 ft | 172 kts | 276° |
| 2026-05-04 13:03 | 35.71981 | -5.79539 | 1909 ft | 164 kts | 277° |
| 2026-05-04 13:03 | 35.72110 | -5.80906 | 1704 ft | 152 kts | 278° |
| 2026-05-04 13:03 | 35.72223 | -5.82108 | 1501 ft | 136 kts | 277° |
| 2026-05-04 13:04 | 35.72330 | -5.83247 | 1314 ft | 133 kts | 276° |
| 2026-05-04 13:04 | 35.72439 | -5.84383 | 1158 ft | 131 kts | 276° |
| 2026-05-04 13:04 | 35.72542 | -5.85478 | 967 ft | 130 kts | 278° |
| 2026-05-04 13:04 | 35.72645 | -5.86585 | 796 ft | 131 kts | 278° |
| 2026-05-04 13:05 | 35.72749 | -5.87701 | 594 ft | 132 kts | 278° |
| 2026-05-04 13:05 | 35.72855 | -5.88826 | 417 ft | 132 kts | 278° |
| 2026-05-04 13:05 | 35.72959 | -5.89932 | 249 ft | 131 kts | 278° |
| 2026-05-04 13:05 | 35.73063 | -5.91038 | 81 ft | 129 kts | 278° |
| 2026-05-04 13:06 | 35.73153 | -5.91996 | 60 ft | 91 kts | 276° |
| 2026-05-04 13:06 | 35.73208 | -5.92580 | 60 ft | 54 kts | 277° |
| 2026-05-04 13:06 | 35.73246 | -5.92999 | 52 ft | 45 kts | 276° |
| 2026-05-04 13:06 | 35.73266 | -5.93217 | 52 ft | 13 kts | 271° |
| 2026-05-04 13:07 | 35.73220 | -5.93314 | 60 ft | 14 kts | 212° |
| 2026-05-04 13:07 | 35.73126 | -5.93310 | 55 ft | 14 kts | 148° |
| 2026-05-04 13:07 | 35.73084 | -5.93198 | 57 ft | 18 kts | 97° |
| 2026-05-04 13:07 | 35.73069 | -5.93038 | 56 ft | 18 kts | 96° |
| 2026-05-04 13:08 | 35.73054 | -5.92882 | 60 ft | 21 kts | 96° |
| 2026-05-04 13:08 | 35.73036 | -5.92685 | 60 ft | 24 kts | 96° |
| 2026-05-04 13:08 | 35.73017 | -5.92483 | 60 ft | 24 kts | 97° |
| 2026-05-04 13:08 | 35.72999 | -5.92288 | 52 ft | 22 kts | 96° |
| 2026-05-04 13:09 | 35.72980 | -5.92089 | 59 ft | 23 kts | 96° |
| 2026-05-04 13:09 | 35.72963 | -5.91898 | 59 ft | 22 kts | 96° |
| 2026-05-04 13:09 | 35.72934 | -5.91746 | 56 ft | 16 kts | 133° |
| 2026-05-04 13:09 | 35.72822 | -5.91715 | 60 ft | 18 kts | 176° |
| 2026-05-04 13:10 | 35.72688 | -5.91703 | 57 ft | 20 kts | 175° |
| 2026-05-04 13:10 | 35.72549 | -5.91690 | 60 ft | 16 kts | 175° |
| 2026-05-04 13:10 | 35.72459 | -5.91647 | 60 ft | 14 kts | 137° |
| 2026-05-04 13:10 | 35.72426 | -5.91535 | 56 ft | 14 kts | 88° |
| 2026-05-04 13:11 | 35.72433 | -5.91418 | 60 ft | 13 kts | 85° |
| 2026-05-04 13:11 | 35.72440 | -5.91306 | 56 ft | 13 kts | 85° |
| 2026-05-04 13:11 | 35.72463 | -5.91246 | 57 ft | 7 kts | 8° |
| 2026-05-04 13:11 | 35.72508 | -5.91248 | 60 ft | 5 kts | 356° |
| 2026-05-04 13:12 | 35.72524 | -5.91250 | 60 ft | 0 kts | 356° |